createdAt,value
2023-05-10T00:01:07.265Z,101030.59
2023-05-10T00:03:35.021Z,101027.28
2023-05-10T00:06:02.752Z,101025.73
2023-05-10T00:08:30.543Z,101024.92
2023-05-10T00:10:58.502Z,101022.35
2023-05-10T00:13:26.381Z,101020.11
2023-05-10T00:15:54.233Z,101018.21
2023-05-10T00:18:22.351Z,101015.26
2023-05-10T00:20:50.205Z,101013.89
2023-05-10T00:23:18.009Z,101009.85
2023-05-10T00:25:45.764Z,101007.02
2023-05-10T00:28:13.619Z,101009.55
2023-05-10T00:30:41.257Z,101008.52
2023-05-10T00:33:09.002Z,101009.92
2023-05-10T00:35:36.982Z,101006.80
2023-05-10T00:38:04.793Z,101005.30
2023-05-10T00:40:32.598Z,101003.23
2023-05-10T00:43:04.078Z,101005.33
2023-05-10T00:45:34.122Z,101007.51
2023-05-10T00:48:05.474Z,101010.25
2023-05-10T00:50:33.907Z,101008.08
2023-05-10T00:53:02.916Z,101005.03
2023-05-10T00:55:31.444Z,101007.64
2023-05-10T00:57:59.803Z,101003.55
2023-05-10T01:00:27.658Z,100998.18
2023-05-10T01:02:55.562Z,100996.44
2023-05-10T01:05:23.872Z,100995.24
2023-05-10T01:07:51.983Z,100997.70
2023-05-10T01:10:19.804Z,100997.55
2023-05-10T01:12:48.545Z,100993.72
2023-05-10T01:15:19.039Z,100994.65
2023-05-10T01:17:49.186Z,100990.94
2023-05-10T01:20:17.307Z,100994.46
2023-05-10T01:23:07.181Z,100990.11
2023-05-10T01:25:56.123Z,100992.52
2023-05-10T01:28:29.782Z,100992.87
2023-05-10T01:31:32.937Z,100993.23
2023-05-10T01:34:08.496Z,100995.34
2023-05-10T01:36:49.520Z,100993.30
2023-05-10T01:39:32.086Z,100991.98
2023-05-10T01:42:11.127Z,100994.09
2023-05-10T01:44:54.294Z,100994.61
2023-05-10T01:47:47.910Z,100995.35
2023-05-10T01:50:29.691Z,100996.20
2023-05-10T01:53:00.128Z,100993.14
2023-05-10T01:55:33.142Z,100992.97
2023-05-10T01:58:11.153Z,100991.16
2023-05-10T02:00:45.507Z,100989.87
2023-05-10T02:03:15.907Z,100987.48
2023-05-10T02:05:47.061Z,100984.34
2023-05-10T02:08:16.785Z,100985.86
2023-05-10T02:10:45.889Z,100983.33
2023-05-10T02:13:15.188Z,100986.98
2023-05-10T02:15:44.384Z,100983.64
2023-05-10T02:18:14.629Z,100981.58
2023-05-10T02:20:44.226Z,100979.98
2023-05-10T02:23:12.496Z,100981.98
2023-05-10T02:25:42.732Z,100981.08
2023-05-10T02:28:13.084Z,100978.84
2023-05-10T02:30:41.471Z,100979.21
2023-05-10T02:33:09.734Z,100975.96
2023-05-10T02:35:40.354Z,100969.95
2023-05-10T02:38:12.744Z,100969.80
2023-05-10T02:40:42.405Z,100968.61
2023-05-10T02:43:13.153Z,100965.50
2023-05-10T02:45:41.934Z,100963.61
2023-05-10T02:48:11.237Z,100963.98
2023-05-10T02:50:44.217Z,100966.73
2023-05-10T02:53:20.247Z,100969.13
2023-05-10T02:55:52.809Z,100968.52
2023-05-10T02:58:20.674Z,100970.70
2023-05-10T03:00:48.728Z,100968.06
2023-05-10T03:03:16.411Z,100967.88
2023-05-10T03:05:44.136Z,100969.14
2023-05-10T03:08:12.163Z,100974.38
2023-05-10T03:10:55.593Z,100973.52
2023-05-10T03:13:36.903Z,100973.28
2023-05-10T03:16:16.435Z,100974.99
2023-05-10T03:19:11.182Z,100975.92
2023-05-10T03:21:42.699Z,100979.27
2023-05-10T03:24:13.440Z,100979.09
2023-05-10T03:26:47.202Z,100980.57
2023-05-10T03:29:18.444Z,100975.74
2023-05-10T03:31:46.473Z,100976.50
2023-05-10T03:34:15.481Z,100969.05
2023-05-10T03:36:43.188Z,100972.23
2023-05-10T03:39:11.486Z,100969.62
2023-05-10T03:41:39.244Z,100973.97
2023-05-10T03:44:06.976Z,100970.48
2023-05-10T03:46:34.797Z,100975.26
2023-05-10T03:49:04.153Z,100981.66
2023-05-10T03:51:32.201Z,100980.25
2023-05-10T03:54:00.241Z,100979.14
2023-05-10T03:56:28.234Z,100976.97
2023-05-10T03:58:56.056Z,100977.27
2023-05-10T04:01:23.720Z,100973.02
2023-05-10T04:03:51.473Z,100972.77
2023-05-10T04:06:19.337Z,100968.95
2023-05-10T04:08:47.087Z,100968.77
2023-05-10T04:11:15.279Z,100968.75
2023-05-10T04:13:44.004Z,100969.45
2023-05-10T04:16:11.746Z,100965.52
2023-05-10T04:18:40.632Z,100967.15
2023-05-10T04:21:14.701Z,100970.30
2023-05-10T04:23:42.498Z,100969.50
2023-05-10T04:26:10.458Z,100969.10
2023-05-10T04:28:38.857Z,100971.73
2023-05-10T04:31:08.339Z,100971.35
2023-05-10T04:33:37.442Z,100972.17
2023-05-10T04:36:05.651Z,100974.71
2023-05-10T04:38:33.391Z,100970.29
2023-05-10T04:41:11.321Z,100970.88
2023-05-10T04:43:39.505Z,100975.70
2023-05-10T04:46:10.556Z,100978.04
2023-05-10T04:48:38.252Z,100974.52
2023-05-10T04:51:07.578Z,100974.29
2023-05-10T04:53:35.261Z,100974.59
2023-05-10T04:56:03.186Z,100976.17
2023-05-10T04:58:31.026Z,100971.58
2023-05-10T05:01:05.504Z,100976.30
2023-05-10T05:03:33.831Z,100976.42
2023-05-10T05:06:01.641Z,100975.21
2023-05-10T05:08:29.327Z,100968.35
2023-05-10T05:10:56.961Z,100970.48
2023-05-10T05:13:24.864Z,100972.33
2023-05-10T05:15:54.599Z,100970.08
2023-05-10T05:18:22.325Z,100972.63
2023-05-10T05:20:50.096Z,100969.98
2023-05-10T05:23:17.924Z,100970.17
2023-05-10T05:25:45.813Z,100967.77
2023-05-10T05:28:13.440Z,100965.46
2023-05-10T05:30:41.147Z,100965.91
2023-05-10T05:33:08.838Z,100966.50
2023-05-10T05:35:36.617Z,100967.85
2023-05-10T05:38:04.497Z,100966.52
2023-05-10T05:40:32.479Z,100965.67
2023-05-10T05:43:00.275Z,100962.30
2023-05-10T05:45:27.902Z,100965.12
2023-05-10T05:47:55.786Z,100961.34
2023-05-10T05:50:23.659Z,100960.58
2023-05-10T05:52:52.140Z,100959.14
2023-05-10T05:55:20.143Z,100954.05
2023-05-10T05:57:47.799Z,100952.89
2023-05-10T06:00:16.362Z,100957.17
2023-05-10T06:02:44.173Z,100953.47
2023-05-10T06:05:12.047Z,100955.21
2023-05-10T06:07:42.816Z,100956.90
2023-05-10T06:10:11.294Z,100957.30
2023-05-10T06:12:38.969Z,100953.88
2023-05-10T06:15:07.403Z,100955.48
2023-05-10T06:17:35.095Z,100958.23
2023-05-10T06:20:02.926Z,100956.27
2023-05-10T06:22:30.617Z,100960.60
2023-05-10T06:24:58.286Z,100957.83
2023-05-10T06:27:25.904Z,100959.44
2023-05-10T06:30:02.214Z,100954.73
2023-05-10T06:32:37.144Z,100953.02
2023-05-10T06:35:05.201Z,100951.46
2023-05-10T06:37:32.906Z,100956.08
2023-05-10T06:40:00.692Z,100954.41
2023-05-10T06:42:28.445Z,100958.36
2023-05-10T06:44:56.070Z,100958.70
2023-05-10T06:47:24.395Z,100957.51
2023-05-10T06:49:52.193Z,100954.77
2023-05-10T06:52:19.892Z,100953.77
2023-05-10T06:54:47.543Z,100953.58
2023-05-10T06:57:27.638Z,100945.70
2023-05-10T06:59:59.992Z,100948.89
2023-05-10T07:02:27.790Z,100943.29
2023-05-10T07:04:55.706Z,100943.23
2023-05-10T07:07:23.555Z,100949.00
2023-05-10T07:09:52.132Z,100944.30
2023-05-10T07:12:20.862Z,100942.73
2023-05-10T07:14:48.640Z,100942.46
2023-05-10T07:17:16.583Z,100945.90
2023-05-10T07:19:44.861Z,100939.95
2023-05-10T07:22:12.544Z,100935.73
2023-05-10T07:24:40.526Z,100937.71
2023-05-10T07:27:08.198Z,100936.48
2023-05-10T07:29:37.131Z,100945.59
2023-05-10T07:32:04.992Z,100944.73
2023-05-10T07:34:32.819Z,100945.81
2023-05-10T07:37:00.614Z,100948.63
2023-05-10T07:39:28.794Z,100944.86
2023-05-10T07:41:56.990Z,100942.61
2023-05-10T07:44:24.752Z,100940.48
2023-05-10T07:46:53.150Z,100942.61
2023-05-10T07:49:20.941Z,100942.22
2023-05-10T07:51:48.845Z,100943.62
2023-05-10T07:54:18.190Z,100944.56
2023-05-10T07:56:48.014Z,100944.16
2023-05-10T07:59:17.970Z,100937.52
2023-05-10T08:01:46.233Z,100928.81
2023-05-10T08:04:14.046Z,100926.70
2023-05-10T08:06:41.954Z,100920.55
2023-05-10T08:09:10.337Z,100927.61
2023-05-10T08:11:38.096Z,100925.20
2023-05-10T08:14:05.847Z,100930.21
2023-05-10T08:16:33.618Z,100926.34
2023-05-10T08:19:01.456Z,100928.65
2023-05-10T08:21:29.558Z,100927.30
2023-05-10T08:23:57.289Z,100926.91
2023-05-10T08:26:25.313Z,100916.66
2023-05-10T08:28:53.123Z,100922.85
2023-05-10T08:31:20.881Z,100922.96
2023-05-10T08:33:48.709Z,100922.31
2023-05-10T08:36:20.660Z,100920.08
2023-05-10T08:38:54.385Z,100919.77
2023-05-10T08:41:24.774Z,100929.75
2023-05-10T08:43:54.467Z,100925.83
2023-05-10T08:46:23.671Z,100922.89
2023-05-10T08:48:52.718Z,100921.08
2023-05-10T08:51:24.697Z,100918.63
2023-05-10T08:53:52.556Z,100923.81
2023-05-10T08:56:21.740Z,100923.27
2023-05-10T08:58:50.724Z,100926.88
2023-05-10T09:01:20.357Z,100922.75
2023-05-10T09:03:49.194Z,100914.35
2023-05-10T09:06:17.211Z,100907.28
2023-05-10T09:08:46.696Z,100909.91
2023-05-10T09:11:15.286Z,100904.93
2023-05-10T09:13:45.070Z,100905.58
2023-05-10T09:16:21.226Z,100902.18
2023-05-10T09:18:50.554Z,100904.48
2023-05-10T09:21:19.418Z,100899.73
2023-05-10T09:23:48.664Z,100898.20
2023-05-10T09:26:17.249Z,100906.35
2023-05-10T09:28:56.379Z,100899.58
2023-05-10T09:31:25.959Z,100897.30
2023-05-10T09:33:54.206Z,100893.59
2023-05-10T09:36:21.862Z,100901.05
2023-05-10T09:38:52.917Z,100901.77
2023-05-10T09:41:22.680Z,100890.00
2023-05-10T09:43:50.853Z,100880.63
2023-05-10T09:46:18.728Z,100881.11
2023-05-10T09:48:50.616Z,100883.52
2023-05-10T09:51:25.783Z,100881.71
2023-05-10T09:54:10.192Z,100885.98
2023-05-10T09:56:41.096Z,100888.05
2023-05-10T09:59:13.521Z,100889.79
2023-05-10T10:01:42.085Z,100891.85
2023-05-10T10:04:10.840Z,100887.94
2023-05-10T10:06:42.284Z,100884.91
2023-05-10T10:09:10.637Z,100877.89
2023-05-10T10:11:39.998Z,100869.57
2023-05-10T10:14:07.650Z,100875.25
2023-05-10T10:16:35.965Z,100870.38
2023-05-10T10:19:03.832Z,100870.29
2023-05-10T10:21:32.545Z,100860.39
2023-05-10T10:24:00.372Z,100855.59
2023-05-10T10:26:28.472Z,100852.88
2023-05-10T10:29:40.384Z,100858.89
2023-05-10T10:32:27.549Z,100856.55
2023-05-10T10:34:57.148Z,100853.55
2023-05-10T10:37:35.411Z,100859.25
2023-05-10T10:40:33.622Z,100853.71
2023-05-10T10:43:31.273Z,100847.31
2023-05-10T10:46:18.806Z,100843.66
2023-05-10T10:48:53.224Z,100835.85
2023-05-10T10:51:21.112Z,100845.95
2023-05-10T10:53:49.415Z,100837.79
2023-05-10T10:56:24.567Z,100832.29
2023-05-10T10:58:54.149Z,100825.42
2023-05-10T11:01:22.215Z,100847.36
2023-05-10T11:04:18.581Z,100840.48
2023-05-10T11:06:46.317Z,100833.01
2023-05-10T11:09:14.347Z,100831.95
2023-05-10T11:11:59.650Z,100826.63
2023-05-10T11:14:27.528Z,100836.40
2023-05-10T11:16:55.493Z,100832.84
2023-05-10T11:19:28.756Z,100827.89
2023-05-10T11:22:05.447Z,100824.62
2023-05-10T11:24:34.378Z,100821.96
2023-05-10T11:27:02.208Z,100819.58
2023-05-10T11:29:30.013Z,100821.63
2023-05-10T11:31:59.655Z,100819.16
2023-05-10T11:34:34.300Z,100816.77
2023-05-10T11:37:02.345Z,100817.52
2023-05-10T11:39:32.753Z,100815.48
2023-05-10T11:42:01.175Z,100823.63
2023-05-10T11:44:32.899Z,100822.97
2023-05-10T11:47:02.572Z,100808.41
2023-05-10T11:49:31.198Z,100811.70
2023-05-10T11:52:08.939Z,100817.33
2023-05-10T11:54:36.821Z,100813.35
2023-05-10T11:57:05.064Z,100808.22
2023-05-10T11:59:32.806Z,100809.07
2023-05-10T12:02:00.808Z,100816.20
2023-05-10T12:04:30.547Z,100807.34
2023-05-10T12:06:58.946Z,100800.88
2023-05-10T12:09:39.538Z,100806.31
2023-05-10T12:12:11.752Z,100809.14
2023-05-10T12:14:39.515Z,100809.64
2023-05-10T12:17:07.278Z,100800.56
2023-05-10T12:19:42.178Z,100805.60
2023-05-10T12:22:09.818Z,100799.05
2023-05-10T12:24:39.349Z,100800.01
2023-05-10T12:27:09.441Z,100798.98
2023-05-10T12:29:37.543Z,100800.72
2023-05-10T12:32:05.301Z,100794.49
2023-05-10T12:34:35.282Z,100788.46
2023-05-10T12:37:04.451Z,100791.65
2023-05-10T12:39:42.354Z,100803.20
2023-05-10T12:42:11.117Z,100796.29
2023-05-10T12:44:39.556Z,100787.66
2023-05-10T12:47:07.285Z,100794.28
2023-05-10T12:49:35.246Z,100790.79
2023-05-10T12:52:03.611Z,100786.56
2023-05-10T12:54:31.417Z,100773.27
2023-05-10T12:56:59.141Z,100772.11
2023-05-10T12:59:26.827Z,100775.71
2023-05-10T13:01:54.546Z,100781.99
2023-05-10T13:04:23.891Z,100779.86
2023-05-10T13:06:51.910Z,100774.36
2023-05-10T13:09:19.930Z,100767.50
2023-05-10T13:11:49.033Z,100768.92
2023-05-10T13:14:16.678Z,100763.23
2023-05-10T13:16:44.313Z,100767.43
2023-05-10T13:19:12.513Z,100773.60
2023-05-10T13:21:43.730Z,100769.06
2023-05-10T13:24:14.646Z,100776.23
2023-05-10T13:26:42.355Z,100767.75
2023-05-10T13:29:10.386Z,100768.83
2023-05-10T13:31:38.137Z,100769.69
2023-05-10T13:34:07.190Z,100770.87
2023-05-10T13:36:34.958Z,100758.24
2023-05-10T13:39:04.485Z,100756.35
2023-05-10T13:41:32.435Z,100758.45
2023-05-10T13:44:00.074Z,100760.96
2023-05-10T13:46:27.822Z,100755.31
2023-05-10T13:48:55.578Z,100753.94
2023-05-10T13:51:23.940Z,100754.52
2023-05-10T13:53:51.669Z,100753.54
2023-05-10T13:56:19.351Z,100759.77
2023-05-10T13:58:47.418Z,100753.20
2023-05-10T14:01:15.486Z,100753.67
2023-05-10T14:03:43.374Z,100750.83
2023-05-10T14:06:11.396Z,100739.13
2023-05-10T14:08:39.022Z,100737.07
2023-05-10T14:11:06.732Z,100740.04
2023-05-10T14:13:34.657Z,100738.35
2023-05-10T14:16:02.642Z,100736.02
2023-05-10T14:18:30.427Z,100732.14
2023-05-10T14:20:58.471Z,100732.54
2023-05-10T14:23:26.745Z,100726.77
2023-05-10T14:25:54.669Z,100727.31
2023-05-10T14:28:23.663Z,100732.34
2023-05-10T14:30:51.695Z,100730.02
2023-05-10T14:33:19.409Z,100723.54
2023-05-10T14:35:48.424Z,100726.38
2023-05-10T14:38:16.132Z,100730.72
2023-05-10T14:40:44.221Z,100723.58
2023-05-10T14:43:11.973Z,100722.36
2023-05-10T14:45:39.653Z,100717.30
2023-05-10T14:48:07.794Z,100714.65
2023-05-10T14:50:37.299Z,100720.96
2023-05-10T14:53:05.758Z,100719.64
2023-05-10T14:55:33.848Z,100723.98
2023-05-10T14:58:03.812Z,100718.71
2023-05-10T15:00:32.014Z,100715.73
2023-05-10T15:03:00.262Z,100719.30
2023-05-10T15:05:28.280Z,100725.83
2023-05-10T15:07:56.883Z,100720.76
2023-05-10T15:10:24.632Z,100715.81
2023-05-10T15:12:52.454Z,100719.64
2023-05-10T15:15:20.301Z,100712.67
2023-05-10T15:17:49.189Z,100709.76
2023-05-10T15:20:17.080Z,100711.95
2023-05-10T15:22:44.839Z,100713.29
2023-05-10T15:25:12.561Z,100713.89
2023-05-10T15:27:40.447Z,100710.27
2023-05-10T15:30:09.376Z,100712.94
2023-05-10T15:32:38.052Z,100709.10
2023-05-10T15:35:06.327Z,100708.02
2023-05-10T15:37:34.020Z,100709.50
2023-05-10T15:40:04.965Z,100710.03
2023-05-10T15:42:33.496Z,100705.13
2023-05-10T15:45:01.184Z,100708.33
2023-05-10T15:47:30.825Z,100704.51
2023-05-10T15:49:58.616Z,100705.39
2023-05-10T15:52:26.380Z,100701.69
2023-05-10T15:54:54.064Z,100701.02
2023-05-10T15:57:21.778Z,100699.17
2023-05-10T15:59:49.631Z,100705.02
2023-05-10T16:02:19.330Z,100696.75
2023-05-10T16:04:47.261Z,100702.86
2023-05-10T16:07:14.956Z,100702.00
2023-05-10T16:09:42.731Z,100701.70
2023-05-10T16:12:10.847Z,100698.48
2023-05-10T16:14:38.569Z,100699.31
2023-05-10T16:17:06.444Z,100702.14
2023-05-10T16:19:34.340Z,100698.63
2023-05-10T16:22:02.294Z,100702.09
2023-05-10T16:24:30.331Z,100702.53
2023-05-10T16:26:58.249Z,100696.97
2023-05-10T16:29:26.232Z,100703.84
2023-05-10T16:31:54.136Z,100706.73
2023-05-10T16:34:24.276Z,100708.15
2023-05-10T16:36:52.012Z,100707.34
2023-05-10T16:39:19.712Z,100710.83
2023-05-10T16:41:47.420Z,100708.65
2023-05-10T16:44:15.157Z,100712.70
2023-05-10T16:46:43.788Z,100709.84
2023-05-10T16:49:12.374Z,100710.67
2023-05-10T16:51:40.951Z,100712.77
2023-05-10T16:54:08.691Z,100709.88
2023-05-10T16:56:36.319Z,100711.17
2023-05-10T16:59:03.941Z,100714.72
2023-05-10T17:01:31.785Z,100712.77
2023-05-10T17:03:59.564Z,100715.92
2023-05-10T17:06:27.360Z,100715.34
2023-05-10T17:08:55.017Z,100719.76
2023-05-10T17:11:22.704Z,100719.71
2023-05-10T17:13:52.423Z,100721.92
2023-05-10T17:16:21.506Z,100727.61
2023-05-10T17:18:49.467Z,100726.48
2023-05-10T17:21:17.216Z,100729.77
2023-05-10T17:23:44.954Z,100730.61
2023-05-10T17:26:12.876Z,100730.88
2023-05-10T17:28:40.628Z,100731.73
2023-05-10T17:31:08.669Z,100732.27
2023-05-10T17:33:36.318Z,100737.10
2023-05-10T17:36:04.158Z,100737.67
2023-05-10T17:38:32.111Z,100741.34
2023-05-10T17:40:59.740Z,100739.92
2023-05-10T17:43:27.440Z,100742.30
2023-05-10T17:45:55.162Z,100748.88
2023-05-10T17:48:23.252Z,100748.75
2023-05-10T17:50:51.570Z,100747.16
2023-05-10T17:53:19.520Z,100752.17
2023-05-10T17:55:49.650Z,100752.86
2023-05-10T17:58:17.433Z,100761.40
2023-05-10T18:00:45.212Z,100760.81
2023-05-10T18:03:13.000Z,100767.28
2023-05-10T18:05:41.001Z,100768.77
2023-05-10T18:08:08.806Z,100769.98
2023-05-10T18:10:39.296Z,100767.54
2023-05-10T18:13:09.007Z,100770.59
2023-05-10T18:15:37.509Z,100766.88
2023-05-10T18:18:05.252Z,100773.17
2023-05-10T18:20:33.079Z,100773.95
2023-05-10T18:23:00.739Z,100775.62
2023-05-10T18:25:28.625Z,100780.20
2023-05-10T18:27:56.386Z,100776.83
2023-05-10T18:30:24.127Z,100783.36
2023-05-10T18:32:52.015Z,100783.20
2023-05-10T18:35:20.024Z,100788.37
2023-05-10T18:37:48.701Z,100791.48
2023-05-10T18:40:17.463Z,100793.71
2023-05-10T18:42:46.656Z,100795.06
2023-05-10T18:45:14.667Z,100795.11
2023-05-10T18:47:43.025Z,100797.38
2023-05-10T18:50:11.110Z,100802.46
2023-05-10T18:52:38.857Z,100803.88
2023-05-10T18:55:07.181Z,100804.12
2023-05-10T18:57:41.039Z,100806.21
2023-05-10T19:00:10.504Z,100812.09
2023-05-10T19:02:39.774Z,100814.45
2023-05-10T19:05:07.741Z,100814.39
2023-05-10T19:07:35.565Z,100817.38
2023-05-10T19:10:03.399Z,100817.14
2023-05-10T19:12:31.204Z,100816.03
2023-05-10T19:14:58.979Z,100819.98
2023-05-10T19:17:26.775Z,100819.10
2023-05-10T19:19:57.025Z,100818.73
2023-05-10T19:22:35.393Z,100817.41
2023-05-10T19:25:13.303Z,100820.38
2023-05-10T19:27:41.246Z,100816.64
2023-05-10T19:30:09.567Z,100822.96
2023-05-10T19:32:37.335Z,100822.40
2023-05-10T19:35:05.713Z,100825.44
2023-05-10T19:37:33.474Z,100823.92
2023-05-10T19:40:01.493Z,100829.11
2023-05-10T19:42:29.165Z,100829.96
2023-05-10T19:44:59.260Z,100832.39
2023-05-10T19:47:26.925Z,100832.68
2023-05-10T19:49:54.616Z,100835.96
2023-05-10T19:52:22.792Z,100835.33
2023-05-10T19:54:50.472Z,100836.27
2023-05-10T19:57:18.237Z,100838.07
2023-05-10T19:59:45.986Z,100839.41
2023-05-10T20:02:13.969Z,100842.00
2023-05-10T20:04:41.714Z,100841.38
2023-05-10T20:07:09.464Z,100841.20
2023-05-10T20:09:37.102Z,100845.96
2023-05-10T20:12:04.830Z,100846.27
2023-05-10T20:14:32.544Z,100848.13
2023-05-10T20:17:00.398Z,100846.55
2023-05-10T20:19:28.058Z,100847.97
2023-05-10T20:21:58.843Z,100847.11
2023-05-10T20:24:26.653Z,100848.04
2023-05-10T20:26:54.693Z,100847.09
2023-05-10T20:29:22.437Z,100850.81
2023-05-10T20:31:50.180Z,100852.45
2023-05-10T20:34:18.088Z,100850.05
2023-05-10T20:36:45.814Z,100849.39
2023-05-10T20:39:14.248Z,100847.33
2023-05-10T20:41:42.205Z,100847.27
2023-05-10T20:44:09.924Z,100848.90
2023-05-10T20:46:37.846Z,100850.04
2023-05-10T20:49:05.608Z,100851.83
2023-05-10T20:51:33.441Z,100853.73
2023-05-10T20:54:04.471Z,100854.71
2023-05-10T20:56:32.132Z,100859.84
2023-05-10T20:58:59.834Z,100859.36
2023-05-10T21:01:27.596Z,100862.59
2023-05-10T21:03:55.351Z,100866.77
2023-05-10T21:06:23.036Z,100868.42
2023-05-10T21:08:50.652Z,100868.02
2023-05-10T21:11:18.268Z,100869.41
2023-05-10T21:13:45.921Z,100868.60
2023-05-10T21:16:13.800Z,100872.83
2023-05-10T21:18:41.538Z,100875.40
2023-05-10T21:21:09.607Z,100872.94
2023-05-10T21:23:37.443Z,100871.64
2023-05-10T21:26:05.222Z,100869.21
2023-05-10T21:28:32.876Z,100870.80
2023-05-10T21:31:00.509Z,100871.94
2023-05-10T21:33:28.330Z,100868.07
2023-05-10T21:35:56.817Z,100872.01
2023-05-10T21:38:24.715Z,100874.04
2023-05-10T21:40:52.356Z,100877.06
2023-05-10T21:43:20.610Z,100876.98
2023-05-10T21:45:48.253Z,100880.73
2023-05-10T21:48:15.936Z,100880.00
2023-05-10T21:50:43.827Z,100882.29
2023-05-10T21:53:11.836Z,100887.02
2023-05-10T21:55:39.521Z,100880.49
2023-05-10T21:58:07.340Z,100881.17
2023-05-10T22:00:35.594Z,100884.91
2023-05-10T22:03:03.425Z,100884.48
2023-05-10T22:05:31.283Z,100886.45
2023-05-10T22:07:59.189Z,100892.89
2023-05-10T22:10:26.816Z,100887.64
2023-05-10T22:12:54.507Z,100889.34
2023-05-10T22:15:22.233Z,100895.38
2023-05-10T22:17:50.490Z,100895.58
2023-05-10T22:20:18.585Z,100895.11
2023-05-10T22:22:46.583Z,100895.74
2023-05-10T22:25:14.582Z,100896.45
2023-05-10T22:27:42.385Z,100899.77
2023-05-10T22:30:10.767Z,100899.23
2023-05-10T22:32:38.510Z,100904.38
2023-05-10T22:35:07.098Z,100902.52
2023-05-10T22:37:34.720Z,100901.88
2023-05-10T22:40:02.467Z,100904.90
2023-05-10T22:42:30.155Z,100906.95
2023-05-10T22:44:58.741Z,100908.77
2023-05-10T22:47:26.476Z,100910.13
2023-05-10T22:49:55.296Z,100908.93
2023-05-10T22:52:22.886Z,100909.83
2023-05-10T22:54:50.834Z,100907.11
2023-05-10T22:57:18.704Z,100909.82
2023-05-10T22:59:48.113Z,100913.15
2023-05-10T23:02:16.280Z,100915.79
2023-05-10T23:04:44.180Z,100919.15
2023-05-10T23:07:12.182Z,100918.92
2023-05-10T23:09:39.923Z,100920.10
2023-05-10T23:12:07.738Z,100922.63
2023-05-10T23:14:35.529Z,100921.29
2023-05-10T23:17:03.269Z,100922.52
2023-05-10T23:19:31.019Z,100922.87
2023-05-10T23:21:59.513Z,100918.42
2023-05-10T23:24:27.178Z,100919.17
2023-05-10T23:26:54.899Z,100919.77
2023-05-10T23:29:23.943Z,100918.08
2023-05-10T23:31:51.850Z,100917.30
2023-05-10T23:34:19.610Z,100917.02
2023-05-10T23:36:47.354Z,100915.52
2023-05-10T23:39:15.436Z,100918.85
2023-05-10T23:41:43.145Z,100921.64
2023-05-10T23:44:10.789Z,100919.56
2023-05-10T23:46:38.417Z,100919.05
2023-05-10T23:49:06.224Z,100915.63
2023-05-10T23:51:34.002Z,100915.02
2023-05-10T23:54:02.106Z,100913.63
2023-05-10T23:56:29.764Z,100915.19
2023-05-10T23:58:57.630Z,100914.90
